Time;durP1;ratioP1;P1;durP2;ratioP2;P2;SDS_P1;SDS_P2;PMS_P1;PMS_P2;Temp;Humidity;BMP_temperature;BMP_pressure;BME280_temperature;BME280_humidity;BME280_pressure;Samples;Min_cycle;Max_cycle;Signal;HPM_P1;HPM_P2
2023/04/01 00:00:57;;;;;;;13.80;7.72;;;9.50;99.90;;;;;;4944274;29;20071;-73
2023/04/01 00:03:24;;;;;;;11.57;8.30;;;9.40;99.90;;;;;;4943305;29;20046;-73
2023/04/01 00:05:50;;;;;;;11.20;7.85;;;9.40;99.90;;;;;;4945607;29;20060;-73
2023/04/01 00:08:16;;;;;;;11.13;7.72;;;9.40;99.90;;;;;;4955235;29;20442;-73
2023/04/01 00:10:42;;;;;;;12.82;8.32;;;9.40;99.90;;;;;;4937988;29;20047;-73
2023/04/01 00:13:08;;;;;;;15.55;8.75;;;9.40;99.90;;;;;;4941323;29;20047;-73
2023/04/01 00:15:33;;;;;;;12.88;8.60;;;9.50;99.90;;;;;;4942354;29;20519;-73
2023/04/01 00:18:00;;;;;;;13.95;8.93;;;9.40;99.90;;;;;;4901265;29;20035;-73
2023/04/01 00:20:26;;;;;;;11.93;8.27;;;9.50;99.90;;;;;;4937214;29;20051;-73
2023/04/01 00:22:52;;;;;;;13.15;8.93;;;9.40;99.90;;;;;;4938534;29;20438;-73
2023/04/01 00:25:18;;;;;;;11.85;8.77;;;9.40;99.90;;;;;;4942566;29;20150;-73
2023/04/01 00:27:44;;;;;;;11.68;8.52;;;9.40;99.90;;;;;;4968441;28;20061;-73
2023/04/01 00:30:10;;;;;;;15.15;8.90;;;9.40;99.90;;;;;;4946422;29;20126;-73
2023/04/01 00:32:36;;;;;;;13.20;8.02;;;9.40;99.90;;;;;;4954175;29;20051;-73
2023/04/01 00:35:02;;;;;;;11.82;8.18;;;9.40;99.90;;;;;;4945593;29;20053;-73
2023/04/01 00:37:28;;;;;;;11.70;8.18;;;9.40;99.90;;;;;;4954395;29;20050;-73
2023/04/01 00:39:54;;;;;;;10.25;7.78;;;9.50;99.90;;;;;;4944695;29;20475;-73
2023/04/01 00:42:20;;;;;;;12.68;7.90;;;9.50;99.90;;;;;;4929260;29;20044;-73
2023/04/01 00:44:50;;;;;;;13.82;8.13;;;9.40;99.90;;;;;;4941208;29;20043;-73
2023/04/01 00:47:16;;;;;;;11.45;7.97;;;9.40;99.90;;;;;;4954174;29;20125;-73
2023/04/01 00:49:48;;;;;;;9.77;7.13;;;9.50;99.90;;;;;;4940646;29;20383;-73
2023/04/01 00:52:17;;;;;;;9.73;7.60;;;9.40;99.90;;;;;;4929664;29;20089;-73
2023/04/01 00:54:47;;;;;;;8.45;7.25;;;9.40;99.90;;;;;;4946029;29;20406;-73
2023/04/01 00:57:19;;;;;;;11.32;7.82;;;9.40;99.90;;;;;;4954257;29;20090;-73
2023/04/01 00:59:47;;;;;;;11.07;7.57;;;9.40;99.90;;;;;;4945483;29;20040;-73
2023/04/01 01:02:14;;;;;;;10.05;7.53;;;9.50;99.90;;;;;;4953961;29;20430;-73
2023/04/01 01:04:40;;;;;;;11.43;7.03;;;9.40;99.90;;;;;;4938642;29;20039;-73
2023/04/01 01:07:37;;;;;;;10.80;7.10;;;9.40;99.90;;;;;;4931284;29;20195;-73
2023/04/01 01:10:17;;;;;;;11.00;7.38;;;9.40;99.90;;;;;;4941334;29;20043;-74
2023/04/01 01:13:03;;;;;;;11.07;7.65;;;9.40;99.90;;;;;;4954056;29;20097;-73
2023/04/01 01:15:28;;;;;;;8.57;7.03;;;9.40;99.90;;;;;;4931946;29;20447;-73
2023/04/01 01:18:27;;;;;;;10.93;7.78;;;9.40;99.90;;;;;;4952448;29;20089;-73
2023/04/01 01:21:17;;;;;;;11.40;7.90;;;9.40;99.90;;;;;;4938213;29;20401;-74
2023/04/01 01:24:10;;;;;;;12.77;8.38;;;9.40;99.90;;;;;;4945564;29;20115;-74
2023/04/01 01:26:52;;;;;;;14.35;8.52;;;9.40;99.90;;;;;;4935676;29;20051;-73
2023/04/01 01:29:45;;;;;;;13.13;8.43;;;9.40;99.90;;;;;;4937436;29;20043;-73
2023/04/01 01:32:16;;;;;;;13.82;8.00;;;9.40;99.90;;;;;;4953318;29;20089;-73
2023/04/01 01:35:16;;;;;;;13.85;8.93;;;9.40;99.90;;;;;;4912943;29;20040;-73
2023/04/01 01:37:43;;;;;;;13.82;8.95;;;9.40;99.90;;;;;;4884420;29;20113;-73
2023/04/01 01:40:11;;;;;;;12.90;8.63;;;9.40;99.90;;;;;;4939747;29;20043;-73
2023/04/01 01:42:40;;;;;;;16.10;8.98;;;9.40;99.90;;;;;;4949027;29;20086;-73
2023/04/01 01:45:08;;;;;;;14.15;8.85;;;9.40;99.90;;;;;;4947764;29;20039;-73
2023/04/01 01:47:35;;;;;;;16.40;9.05;;;9.40;99.90;;;;;;4935346;29;20041;-73
2023/04/01 01:50:03;;;;;;;16.95;8.98;;;9.40;99.90;;;;;;4944657;29;20517;-73
2023/04/01 01:52:28;;;;;;;17.10;8.75;;;9.40;99.90;;;;;;4952872;29;20039;-74
2023/04/01 01:54:56;;;;;;;13.50;8.05;;;9.40;99.90;;;;;;4948187;29;20049;-73
2023/04/01 01:57:27;;;;;;;15.38;10.10;;;9.40;99.90;;;;;;4933562;29;20048;-73
2023/04/01 01:59:56;;;;;;;15.98;9.90;;;9.40;99.90;;;;;;4945479;29;20146;-73
2023/04/01 02:02:24;;;;;;;15.65;9.52;;;9.40;99.90;;;;;;4939325;29;20039;-73
2023/04/01 02:04:51;;;;;;;14.75;9.57;;;9.40;99.90;;;;;;4947328;28;20046;-73
2023/04/01 02:07:22;;;;;;;16.25;9.55;;;9.40;99.90;;;;;;4952775;29;20497;-73
2023/04/01 02:09:48;;;;;;;15.80;9.50;;;9.40;99.90;;;;;;4947108;29;20568;-74
2023/04/01 02:12:16;;;;;;;16.08;9.35;;;9.40;99.90;;;;;;4939620;29;20168;-74
2023/04/01 02:15:05;;;;;;;15.88;9.80;;;9.40;99.90;;;;;;4917838;29;20035;-73
2023/04/01 02:17:33;;;;;;;21.83;10.20;;;9.40;99.90;;;;;;4935877;29;20051;-73
2023/04/01 02:20:10;;;;;;;14.75;9.50;;;9.40;99.90;;;;;;4952788;29;20130;-73
2023/04/01 02:22:43;;;;;;;18.60;10.15;;;9.40;99.90;;;;;;4928808;29;20132;-73
2023/04/01 02:25:12;;;;;;;16.25;9.45;;;9.40;99.90;;;;;;4952365;29;20047;-74
2023/04/01 02:27:39;;;;;;;18.27;10.65;;;9.40;99.90;;;;;;4939844;29;20046;-73
2023/04/01 02:30:07;;;;;;;16.20;9.68;;;9.40;99.90;;;;;;4951319;29;20414;-73
2023/04/01 02:32:34;;;;;;;16.83;10.20;;;9.50;99.90;;;;;;4932698;29;20160;-73
2023/04/01 02:35:03;;;;;;;16.27;10.05;;;9.40;99.90;;;;;;4944457;29;20051;-73
2023/04/01 02:37:29;;;;;;;17.83;10.52;;;9.40;99.90;;;;;;4952619;29;20061;-73
2023/04/01 02:40:00;;;;;;;17.35;9.63;;;9.50;99.90;;;;;;4936546;29;20047;-73
2023/04/01 02:42:25;;;;;;;16.02;9.88;;;9.40;99.90;;;;;;4937062;29;20048;-73
2023/04/01 02:44:51;;;;;;;18.73;10.38;;;9.40;99.90;;;;;;4950247;29;20517;-73
2023/04/01 02:47:16;;;;;;;21.05;10.70;;;9.40;99.90;;;;;;4920550;29;20047;-73
2023/04/01 02:49:42;;;;;;;25.38;10.88;;;9.50;99.90;;;;;;4914286;29;20064;-73
2023/04/01 02:52:07;;;;;;;18.52;10.32;;;9.50;99.90;;;;;;4933594;29;20070;-73
2023/04/01 02:54:33;;;;;;;19.65;11.13;;;9.50;99.90;;;;;;4938683;29;20036;-73
2023/04/01 02:56:59;;;;;;;19.30;10.95;;;9.50;99.90;;;;;;4951975;29;20039;-73
2023/04/01 02:59:24;;;;;;;22.95;11.45;;;9.40;99.90;;;;;;4952267;29;20379;-73
2023/04/01 03:01:50;;;;;;;18.35;11.13;;;9.50;99.90;;;;;;4952310;29;20054;-73
2023/04/01 03:04:15;;;;;;;20.73;11.68;;;9.50;99.90;;;;;;4944791;29;20039;-73
2023/04/01 03:06:41;;;;;;;19.83;10.68;;;9.50;99.90;;;;;;4942450;29;20043;-73
2023/04/01 03:09:06;;;;;;;21.23;11.57;;;9.50;99.90;;;;;;4938361;29;20134;-73
2023/04/01 03:11:32;;;;;;;24.92;11.30;;;9.50;99.90;;;;;;4942994;29;20210;-73
2023/04/01 03:13:57;;;;;;;23.65;11.60;;;9.50;99.90;;;;;;4972937;23;20129;-74
2023/04/01 03:16:23;;;;;;;31.05;12.55;;;9.50;99.90;;;;;;4958036;28;20051;-74
2023/04/01 03:18:50;;;;;;;26.83;12.00;;;9.50;99.90;;;;;;4956218;29;20506;-74
2023/04/01 03:21:24;;;;;;;41.30;13.50;;;9.50;99.90;;;;;;4954559;29;20393;-74
2023/04/01 03:23:50;;;;;;;28.55;12.35;;;9.50;99.90;;;;;;4953900;29;20042;-74
2023/04/01 03:26:16;;;;;;;27.25;11.65;;;9.50;99.90;;;;;;4922639;29;20040;-74
2023/04/01 03:28:41;;;;;;;38.17;13.27;;;9.50;99.90;;;;;;4940272;29;20047;-72
2023/04/01 03:31:07;;;;;;;37.95;12.98;;;9.50;99.90;;;;;;4917712;29;20398;-73
2023/04/01 03:33:33;;;;;;;30.02;12.60;;;9.50;99.90;;;;;;4932351;29;20054;-73
2023/04/01 03:35:58;;;;;;;25.05;12.02;;;9.50;99.90;;;;;;4945335;29;20564;-73
2023/04/01 03:38:24;;;;;;;21.77;11.85;;;9.50;99.90;;;;;;4953666;29;20375;-73
2023/04/01 03:40:50;;;;;;;29.75;12.13;;;9.50;99.90;;;;;;4947110;29;20126;-73
2023/04/01 03:43:16;;;;;;;23.60;12.27;;;9.50;99.90;;;;;;4952122;29;20039;-73
2023/04/01 03:45:50;;;;;;;34.47;12.63;;;9.50;99.90;;;;;;4947632;29;20465;-73
2023/04/01 03:48:16;;;;;;;40.47;12.95;;;9.50;99.90;;;;;;4948435;29;20079;-73
2023/04/01 03:50:42;;;;;;;28.38;12.95;;;9.50;99.90;;;;;;4941978;29;20064;-73
2023/04/01 03:53:07;;;;;;;41.10;13.23;;;9.50;99.90;;;;;;4948116;29;20088;-73
2023/04/01 03:55:33;;;;;;;37.15;12.68;;;9.50;99.90;;;;;;4943728;29;20051;-73
2023/04/01 03:58:01;;;;;;;43.92;13.13;;;9.50;99.90;;;;;;4931329;29;20040;-73
2023/04/01 04:00:27;;;;;;;39.28;13.00;;;9.50;99.90;;;;;;4944563;29;20083;-73
2023/04/01 04:02:53;;;;;;;43.42;13.60;;;9.50;99.90;;;;;;4950687;29;20467;-73
2023/04/01 04:05:19;;;;;;;41.78;13.63;;;9.50;99.90;;;;;;4943996;29;20079;-73
2023/04/01 04:07:44;;;;;;;59.47;15.63;;;9.50;99.90;;;;;;4947266;29;20512;-73
2023/04/01 04:10:10;;;;;;;49.85;14.73;;;9.50;99.90;;;;;;4939325;29;20582;-73
2023/04/01 04:12:35;;;;;;;34.80;13.35;;;9.50;99.90;;;;;;4954857;29;20043;-73
2023/04/01 04:15:01;;;;;;;35.92;13.68;;;9.50;99.90;;;;;;4929398;29;20043;-73
2023/04/01 04:17:26;;;;;;;47.42;14.32;;;9.50;99.90;;;;;;4938964;29;20047;-73
2023/04/01 04:19:52;;;;;;;67.22;15.48;;;9.50;99.90;;;;;;4931752;29;20044;-73
2023/04/01 04:22:17;;;;;;;42.03;14.15;;;9.60;99.90;;;;;;4916419;29;20517;-73
2023/04/01 04:24:43;;;;;;;46.00;14.20;;;9.50;99.90;;;;;;4940453;29;20051;-73
2023/04/01 04:27:08;;;;;;;38.22;14.27;;;9.50;99.90;;;;;;4940194;28;20046;-73
2023/04/01 04:29:34;;;;;;;39.58;14.60;;;9.50;99.90;;;;;;4926658;29;20053;-73
2023/04/01 04:32:00;;;;;;;33.28;14.55;;;9.50;99.90;;;;;;4923970;29;20036;-73
2023/04/01 04:34:25;;;;;;;45.40;15.43;;;9.50;99.90;;;;;;4929433;29;20130;-73
2023/04/01 04:36:51;;;;;;;46.88;16.65;;;9.60;99.90;;;;;;4946704;29;20055;-73
2023/04/01 04:39:17;;;;;;;56.95;15.45;;;9.50;99.90;;;;;;4954700;29;20046;-73
2023/04/01 04:41:42;;;;;;;49.42;16.20;;;9.60;99.90;;;;;;4946660;29;20035;-73
2023/04/01 04:44:08;;;;;;;72.05;17.20;;;9.60;99.90;;;;;;4941296;29;20035;-73
2023/04/01 04:46:33;;;;;;;52.13;17.00;;;9.60;99.90;;;;;;4946090;29;20071;-73
2023/04/01 04:48:59;;;;;;;65.47;17.48;;;9.60;99.90;;;;;;4954643;29;20410;-73
2023/04/01 04:51:25;;;;;;;81.20;18.42;;;9.60;99.90;;;;;;4954054;29;20078;-73
2023/04/01 04:53:50;;;;;;;68.85;17.48;;;9.60;99.90;;;;;;4945767;29;20040;-73
2023/04/01 04:56:20;;;;;;;64.18;17.80;;;9.60;99.90;;;;;;4940654;29;20478;-73
2023/04/01 04:58:46;;;;;;;54.47;16.50;;;9.60;99.90;;;;;;4945536;29;20533;-73
2023/04/01 05:01:14;;;;;;;44.78;16.33;;;9.50;99.90;;;;;;4954190;29;20067;-73
2023/04/01 05:03:41;;;;;;;44.08;15.85;;;9.60;99.90;;;;;;4942149;29;20043;-73
2023/04/01 05:06:08;;;;;;;42.40;14.88;;;9.60;99.90;;;;;;4940492;29;20146;-73
2023/04/01 05:08:33;;;;;;;43.53;15.10;;;9.60;99.90;;;;;;4937885;29;20043;-73
2023/04/01 05:11:00;;;;;;;38.60;14.52;;;9.60;99.90;;;;;;4943143;29;20074;-73
2023/04/01 05:13:26;;;;;;;53.28;16.70;;;9.60;99.90;;;;;;4940677;29;20036;-73
2023/04/01 05:15:52;;;;;;;48.28;17.38;;;9.60;99.90;;;;;;4948592;29;20043;-73
2023/04/01 05:18:17;;;;;;;45.70;18.15;;;9.60;99.90;;;;;;4948187;29;20375;-73
2023/04/01 05:20:51;;;;;;;44.50;16.85;;;9.60;99.90;;;;;;4934521;29;20387;-73
2023/04/01 05:23:17;;;;;;;47.67;16.55;;;9.60;99.90;;;;;;4929314;29;20036;-73
2023/04/01 05:25:45;;;;;;;48.85;16.42;;;9.60;99.90;;;;;;4948737;29;20036;-73
2023/04/01 05:28:10;;;;;;;42.60;15.27;;;9.60;99.90;;;;;;4953506;29;20039;-73
2023/04/01 05:30:36;;;;;;;61.28;14.52;;;9.60;99.90;;;;;;4953327;29;20410;-73
2023/04/01 05:33:02;;;;;;;36.35;12.77;;;9.60;99.90;;;;;;4949191;29;20035;-73
2023/04/01 05:35:28;;;;;;;33.75;11.27;;;9.60;99.90;;;;;;4936667;29;20486;-73
2023/04/01 05:37:53;;;;;;;24.98;10.00;;;9.60;99.90;;;;;;4951545;29;20050;-73
2023/04/01 05:40:19;;;;;;;30.88;9.55;;;9.60;99.90;;;;;;4953461;28;20036;-73
2023/04/01 05:42:44;;;;;;;18.70;7.43;;;9.60;99.90;;;;;;4953309;29;20516;-73
2023/04/01 05:45:10;;;;;;;21.05;7.55;;;9.60;99.90;;;;;;4942761;29;20040;-73
2023/04/01 05:47:36;;;;;;;21.10;7.15;;;9.60;99.90;;;;;;4937772;29;20051;-73
2023/04/01 05:50:01;;;;;;;17.13;5.93;;;9.60;99.90;;;;;;4953149;29;20039;-73
2023/04/01 05:52:27;;;;;;;15.25;5.70;;;9.60;99.90;;;;;;4952956;29;20130;-73
2023/04/01 05:54:52;;;;;;;29.02;6.47;;;9.60;99.90;;;;;;4940586;29;20143;-73
2023/04/01 05:57:18;;;;;;;16.13;5.50;;;9.60;99.90;;;;;;4945906;29;20093;-73
2023/04/01 05:59:44;;;;;;;30.23;20.00;;;9.60;99.90;;;;;;4952176;29;20043;-74
2023/04/01 06:02:10;;;;;;;10.85;5.18;;;9.60;99.90;;;;;;4939862;29;20066;-73
2023/04/01 06:04:39;;;;;;;11.85;5.43;;;9.60;99.90;;;;;;4932635;29;20050;-73
2023/04/01 06:07:16;;;;;;;9.70;4.50;;;9.60;99.90;;;;;;4932917;29;20055;-73
2023/04/01 06:09:42;;;;;;;10.40;3.70;;;9.60;99.90;;;;;;4921849;29;20059;-75
2023/04/01 06:12:39;;;;;;;13.05;3.88;;;9.60;99.90;;;;;;4934839;29;20413;-74
2023/04/01 06:15:17;;;;;;;9.27;3.42;;;9.60;99.90;;;;;;4922647;29;20254;-74
2023/04/01 06:18:18;;;;;;;8.63;3.38;;;9.60;99.90;;;;;;4919361;29;20036;-73
2023/04/01 06:21:00;;;;;;;8.32;3.50;;;9.70;99.90;;;;;;4939189;29;20032;-73
2023/04/01 06:24:20;;;;;;;7.78;3.92;;;9.70;99.90;;;;;;4937177;29;20130;-73
2023/04/01 06:27:16;;;;;;;12.63;4.63;;;9.80;99.90;;;;;;4837875;29;20060;-73
2023/04/01 06:30:22;;;;;;;11.80;4.97;;;9.70;99.90;;;;;;4952715;29;20154;-73
2023/04/01 06:32:53;;;;;;;10.52;5.00;;;9.80;99.90;;;;;;4925004;29;20062;-73
2023/04/01 06:35:43;;;;;;;12.02;5.05;;;9.80;99.90;;;;;;4940681;29;20044;-73
2023/04/01 06:38:14;;;;;;;14.02;5.72;;;9.80;99.90;;;;;;4932936;29;20083;-73
2023/04/01 06:40:58;;;;;;;16.25;6.80;;;9.80;99.90;;;;;;4923033;29;20040;-73
2023/04/01 06:43:58;;;;;;;15.85;6.53;;;9.90;99.90;;;;;;4944688;29;20039;-73
2023/04/01 06:46:44;;;;;;;14.02;7.30;;;9.90;99.90;;;;;;4936837;29;20039;-73
2023/04/01 06:49:38;;;;;;;15.02;6.93;;;9.90;99.90;;;;;;4914349;29;20051;-73
2023/04/01 06:52:22;;;;;;;;;;;10.00;99.90;;;;;;4934872;29;20072;-74
2023/04/01 06:55:02;;;;;;;19.15;7.30;;;10.00;99.90;;;;;;4921714;29;20346;-74
2023/04/01 06:57:50;;;;;;;14.73;6.80;;;10.00;99.90;;;;;;4946518;29;20051;-74
2023/04/01 07:00:27;;;;;;;16.38;7.50;;;10.10;99.90;;;;;;4924972;29;20039;-74
2023/04/01 07:03:02;;;;;;;17.33;8.13;;;10.10;99.90;;;;;;4946431;29;20178;-74
2023/04/01 07:05:35;;;;;;;21.67;9.43;;;10.10;99.90;;;;;;4938718;29;20421;-74
2023/04/01 07:08:17;;;;;;;24.63;9.40;;;10.10;99.90;;;;;;4933245;29;20032;-74
2023/04/01 07:10:54;;;;;;;19.67;8.88;;;10.10;99.90;;;;;;4944562;29;20039;-74
2023/04/01 07:13:40;;;;;;;20.23;9.10;;;10.10;99.90;;;;;;4942112;29;20398;-74
2023/04/01 07:16:26;;;;;;;16.30;8.45;;;10.20;99.90;;;;;;4934838;29;20048;-74
2023/04/01 07:19:12;;;;;;;16.75;8.55;;;10.30;99.90;;;;;;4937289;29;20044;-74
2023/04/01 07:21:46;;;;;;;15.40;7.35;;;10.40;99.90;;;;;;4948355;29;20055;-74
2023/04/01 07:24:36;;;;;;;17.80;8.02;;;10.40;99.90;;;;;;4953994;29;20122;-74
2023/04/01 07:27:02;;;;;;;14.20;7.05;;;10.40;99.90;;;;;;4955819;29;20513;-74
2023/04/01 07:29:28;;;;;;;16.60;6.93;;;10.50;99.90;;;;;;4941842;29;20052;-74
2023/04/01 07:32:33;;;;;;;14.90;6.95;;;10.60;99.90;;;;;;4952376;29;20047;-74
2023/04/01 07:35:22;;;;;;;16.38;8.05;;;10.60;99.90;;;;;;4925954;29;20360;-74
2023/04/01 07:38:03;;;;;;;15.05;6.75;;;10.70;99.90;;;;;;4932262;29;20084;-74
2023/04/01 07:41:04;;;;;;;14.43;6.63;;;10.70;99.90;;;;;;4925874;29;20032;-74
2023/04/01 07:44:00;;;;;;;13.02;6.80;;;10.80;99.90;;;;;;4933211;29;20443;-73
2023/04/01 07:46:30;;;;;;;12.02;6.80;;;10.80;99.90;;;;;;4940750;29;20070;-73
2023/04/01 07:49:12;;;;;;;10.68;6.40;;;10.90;99.90;;;;;;4951880;29;20051;-73
2023/04/01 07:51:58;;;;;;;13.00;7.45;;;11.00;99.90;;;;;;4935724;29;20047;-73
2023/04/01 07:54:43;;;;;;;12.90;8.43;;;11.00;99.90;;;;;;4936111;29;20159;-73
2023/04/01 07:57:34;;;;;;;12.60;8.77;;;11.10;99.90;;;;;;4951770;29;20043;-73
2023/04/01 08:00:18;;;;;;;11.75;8.57;;;11.10;99.90;;;;;;4940290;29;20418;-73
2023/04/01 08:03:12;;;;;;;11.13;9.40;;;11.20;99.90;;;;;;4951607;28;20050;-73
2023/04/01 08:06:12;;;;;;;12.70;9.38;;;11.20;99.90;;;;;;4955333;29;20076;-73
2023/04/01 08:08:59;;;;;;;11.00;8.65;;;11.30;99.90;;;;;;4937655;29;20129;-73
2023/04/01 08:11:57;;;;;;;12.60;8.52;;;11.40;99.90;;;;;;4938813;29;20050;-73
2023/04/01 08:14:51;;;;;;;11.32;9.27;;;11.30;99.90;;;;;;4940084;29;20429;-73
2023/04/01 08:17:39;;;;;;;12.25;9.27;;;11.30;99.90;;;;;;4954934;29;20186;-73
2023/04/01 08:20:37;;;;;;;11.00;8.70;;;11.40;99.90;;;;;;4941402;29;20081;-73
2023/04/01 08:23:10;;;;;;;9.43;7.85;;;11.40;99.90;;;;;;4893797;29;20537;-73
2023/04/01 08:25:42;;;;;;;8.05;6.53;;;11.50;99.90;;;;;;4941302;29;20043;-73
2023/04/01 08:28:36;;;;;;;9.32;7.40;;;11.50;99.90;;;;;;4914795;29;20126;-75
2023/04/01 08:31:32;;;;;;;9.38;6.90;;;11.50;99.90;;;;;;4907307;29;20058;-73
2023/04/01 08:34:00;;;;;;;8.93;6.97;;;11.50;99.90;;;;;;4931347;29;20035;-74
2023/04/01 08:36:33;;;;;;;8.20;6.45;;;11.50;99.90;;;;;;4942369;29;20499;-74
2023/04/01 08:39:19;;;;;;;7.43;6.50;;;11.60;99.90;;;;;;4945696;29;20482;-75
2023/04/01 08:42:19;;;;;;;8.32;6.90;;;11.60;99.90;;;;;;4954376;29;20498;-74
2023/04/01 08:45:13;;;;;;;8.43;6.68;;;11.60;99.90;;;;;;4947377;29;21237;-75
2023/04/01 08:47:45;;;;;;;;;;;11.60;99.90;;;;;;4940209;29;20035;-74
2023/04/01 08:50:56;;;;;;;5.50;4.40;;;11.60;99.90;;;;;;4954480;29;19925;-75
2023/04/01 08:53:38;;;;;;;5.10;4.03;;;11.60;99.90;;;;;;4920891;29;20517;-75
2023/04/01 08:56:07;;;;;;;6.22;4.82;;;11.50;99.90;;;;;;4934571;29;20560;-75
2023/04/01 08:58:59;;;;;;;5.25;4.45;;;11.50;99.90;;;;;;4935839;29;20032;-75
2023/04/01 09:02:05;;;;;;;4.80;3.67;;;11.60;99.90;;;;;;4949174;29;20046;-75
2023/04/01 09:05:18;;;;;;;5.30;3.70;;;11.60;99.90;;;;;;4916146;29;20169;-75
2023/04/01 09:08:21;;;;;;;5.97;4.45;;;11.60;99.90;;;;;;4935691;29;20051;-75
2023/04/01 09:11:22;;;;;;;4.88;3.50;;;11.60;99.90;;;;;;4955035;29;20129;-75
2023/04/01 09:21:59;;;;;;;4.90;3.97;;;11.60;99.90;;;;;;4937122;29;20573;-78
2023/04/01 09:25:09;;;;;;;5.38;3.70;;;11.60;99.90;;;;;;4906765;29;20074;-79
2023/04/01 09:28:14;;;;;;;5.35;3.90;;;11.60;99.90;;;;;;4886362;29;20147;-77
2023/04/01 09:31:14;;;;;;;5.07;3.70;;;11.60;99.90;;;;;;4889900;29;20046;-79
2023/04/01 09:34:50;;;;;;;;;;;;;;;;;;;;;
2023/04/01 09:37:40;;;;;;;4.40;3.08;;;11.60;99.90;;;;;;4892364;29;20494;-78
2023/04/01 09:41:24;;;;;;;3.78;2.70;;;11.70;99.90;;;;;;4884888;29;20087;-78
2023/04/01 09:48:10;;;;;;;2.05;1.80;;;11.60;99.90;;;;;;4906585;29;20040;-78
2023/04/01 09:51:36;;;;;;;1.90;1.70;;;11.60;99.90;;;;;;4814760;29;20290;-78
2023/04/01 09:54:32;;;;;;;2.53;1.95;;;11.70;99.90;;;;;;4828357;29;20404;-76
2023/04/01 09:57:20;;;;;;;2.88;2.20;;;11.60;99.90;;;;;;4818864;29;20042;-76
2023/04/01 10:00:23;;;;;;;2.35;2.10;;;11.70;99.90;;;;;;4827491;29;20425;-76
2023/04/01 10:03:19;;;;;;;4.18;2.90;;;11.90;99.90;;;;;;4868199;29;20406;-76
2023/04/01 10:06:18;;;;;;;5.15;3.60;;;12.00;99.90;;;;;;4913293;29;20055;-75
2023/04/01 10:13:17;;;;;;;5.50;4.18;;;12.00;99.90;;;;;;4854372;29;20087;-77
2023/04/01 10:19:58;;;;;;;5.70;4.72;;;12.00;99.90;;;;;;4856617;29;20097;-79
2023/04/01 10:23:01;;;;;;;7.32;6.40;;;12.00;99.90;;;;;;4859004;29;20087;-77
2023/04/01 10:26:01;;;;;;;8.10;6.97;;;12.00;99.90;;;;;;4887678;29;20076;-78
2023/04/01 10:29:03;;;;;;;8.82;7.68;;;11.90;99.90;;;;;;4933795;29;20484;-79
2023/04/01 10:32:07;;;;;;;9.32;8.43;;;11.90;99.90;;;;;;4902508;29;20040;-75
2023/04/01 10:35:09;;;;;;;9.32;8.20;;;11.90;99.90;;;;;;4840380;29;20048;-78
2023/04/01 10:37:52;;;;;;;8.65;7.70;;;12.00;99.90;;;;;;4925108;29;20477;-78
2023/04/01 10:40:47;;;;;;;8.82;7.90;;;12.00;99.90;;;;;;4890844;29;20103;-78
2023/04/01 10:43:46;;;;;;;9.05;8.15;;;12.10;99.90;;;;;;4888918;29;20044;-78
2023/04/01 10:46:49;;;;;;;9.32;8.48;;;12.10;99.90;;;;;;4914349;29;20059;-78
2023/04/01 10:50:11;;;;;;;9.63;8.48;;;12.10;99.90;;;;;;4884726;29;20518;-77
2023/04/01 10:52:58;;;;;;;12.52;11.23;;;12.20;99.90;;;;;;4882223;29;20075;-76
2023/04/01 10:56:15;;;;;;;8.88;7.97;;;12.30;99.90;;;;;;4895219;29;20136;-77
2023/04/01 10:59:19;;;;;;;8.90;8.05;;;12.30;99.90;;;;;;4879752;29;20044;-76
2023/04/01 11:02:23;;;;;;;8.63;7.82;;;12.40;99.90;;;;;;4852390;29;20059;-76
2023/04/01 11:05:13;;;;;;;10.10;8.10;;;12.40;99.90;;;;;;4887229;29;20116;-76
2023/04/01 11:08:04;;;;;;;9.43;8.45;;;12.30;99.90;;;;;;4880506;29;20144;-76
2023/04/01 11:11:11;;;;;;;8.88;8.07;;;12.20;99.90;;;;;;4880703;29;20499;-76
2023/04/01 11:14:12;;;;;;;9.63;8.73;;;12.10;99.90;;;;;;4882081;29;20127;-76
2023/04/01 11:16:55;;;;;;;9.60;8.60;;;11.80;99.90;;;;;;4907781;29;20055;-78
2023/04/01 11:19:59;;;;;;;9.38;8.43;;;11.80;99.90;;;;;;4884386;29;20403;-80
2023/04/01 11:22:52;;;;;;;9.27;8.38;;;11.70;99.90;;;;;;4885807;29;20099;-78
2023/04/01 11:25:45;;;;;;;9.35;8.45;;;11.50;99.90;;;;;;4895209;29;20053;-77
2023/04/01 11:28:42;;;;;;;9.75;8.85;;;11.50;99.90;;;;;;4880111;29;20048;-78
2023/04/01 11:31:54;;;;;;;10.25;9.25;;;11.50;99.90;;;;;;4915534;29;20422;-78
2023/04/01 11:34:49;;;;;;;10.00;9.00;;;11.50;99.90;;;;;;4885989;29;20049;-77
2023/04/01 11:37:40;;;;;;;8.85;7.95;;;11.50;99.90;;;;;;4885819;29;20050;-76
2023/04/01 11:40:29;;;;;;;12.00;10.80;;;11.60;99.90;;;;;;4900333;29;20129;-76
2023/04/01 11:43:15;;;;;;;14.20;12.73;;;11.60;99.90;;;;;;4893390;29;20150;-76
2023/04/01 11:45:53;;;;;;;13.90;12.40;;;11.60;99.90;;;;;;4902746;29;20125;-76
2023/04/01 11:48:46;;;;;;;11.15;10.07;;;11.70;99.90;;;;;;4904315;29;20047;-78
2023/04/01 11:51:43;;;;;;;8.65;7.75;;;11.60;99.90;;;;;;4881664;29;20079;-77
2023/04/01 11:54:40;;;;;;;8.82;7.93;;;11.60;99.90;;;;;;4918531;29;20518;-77
2023/04/01 11:57:28;;;;;;;9.43;8.52;;;11.50;99.90;;;;;;4911036;29;20043;-76
2023/04/01 12:00:24;;;;;;;8.57;7.78;;;11.30;99.90;;;;;;4903496;29;20051;-78
2023/04/01 12:03:06;;;;;;;9.65;8.75;;;11.10;99.90;;;;;;4887063;29;20042;-76
2023/04/01 12:05:52;;;;;;;9.98;9.00;;;10.90;99.90;;;;;;4881690;29;20120;-76
2023/04/01 12:08:31;;;;;;;8.32;7.53;;;10.70;99.90;;;;;;4900542;29;20076;-76
2023/04/01 12:11:35;;;;;;;10.20;9.15;;;10.70;99.90;;;;;;4908400;29;20099;-76
2023/04/01 12:14:52;;;;;;;9.38;8.55;;;10.60;99.90;;;;;;4825524;29;20149;-76
2023/04/01 12:17:26;;;;;;;9.13;8.23;;;10.50;99.90;;;;;;4845962;29;20415;-76
2023/04/01 12:20:21;;;;;;;8.75;7.95;;;10.40;99.90;;;;;;4870527;29;20047;-76
2023/04/01 12:23:15;;;;;;;8.57;7.78;;;10.50;99.90;;;;;;4889708;29;20084;-76
2023/04/01 12:26:18;;;;;;;8.98;8.18;;;10.50;99.90;;;;;;4916624;29;20044;-76
2023/04/01 12:29:17;;;;;;;8.25;7.50;;;10.40;99.90;;;;;;4891822;29;20076;-76
2023/04/01 12:31:49;;;;;;;9.45;8.52;;;10.40;99.90;;;;;;4884518;29;20407;-76
2023/04/01 12:34:33;;;;;;;8.45;7.65;;;10.40;99.90;;;;;;4895541;29;20483;-76
2023/04/01 12:37:20;;;;;;;8.40;7.63;;;10.40;99.90;;;;;;4889509;29;20054;-76
2023/04/01 12:40:03;;;;;;;7.68;6.97;;;10.50;99.90;;;;;;4893967;29;20135;-76
2023/04/01 12:42:50;;;;;;;8.07;7.18;;;10.60;99.90;;;;;;4918241;29;20044;-76
2023/04/01 12:45:29;;;;;;;7.82;7.13;;;10.60;99.90;;;;;;4896178;29;20041;-76
2023/04/01 12:48:19;;;;;;;7.80;7.10;;;10.60;99.90;;;;;;4927980;29;20047;-77
2023/04/01 12:51:07;;;;;;;7.20;6.50;;;10.60;99.90;;;;;;4890802;29;20040;-76
2023/04/01 12:54:10;;;;;;;8.27;7.47;;;10.60;99.90;;;;;;4879789;29;20044;-76
2023/04/01 12:56:48;;;;;;;7.10;6.40;;;10.50;99.90;;;;;;4879705;29;20130;-76
2023/04/01 12:59:32;;;;;;;7.18;6.57;;;10.50;99.90;;;;;;4916980;29;20048;-76
2023/04/01 13:02:32;;;;;;;7.43;6.60;;;10.40;99.90;;;;;;4885397;29;20044;-77
2023/04/01 13:05:14;;;;;;;7.28;6.60;;;10.30;99.90;;;;;;4893149;29;20048;-77
2023/04/01 13:08:18;;;;;;;7.15;6.45;;;10.30;99.90;;;;;;4917136;29;20560;-76
2023/04/01 13:11:02;;;;;;;7.28;6.57;;;10.20;99.90;;;;;;4901288;29;20517;-77
2023/04/01 13:13:40;;;;;;;7.57;6.88;;;10.20;99.90;;;;;;4893686;29;20087;-77
2023/04/01 13:16:16;;;;;;;7.68;6.97;;;10.20;99.90;;;;;;4883747;29;20040;-77
2023/04/01 13:19:11;;;;;;;7.25;6.55;;;10.10;99.90;;;;;;4875738;29;20056;-76
2023/04/01 13:22:00;;;;;;;8.00;7.30;;;10.10;99.90;;;;;;4882742;29;20234;-77
2023/04/01 13:24:49;;;;;;;7.65;6.93;;;10.10;99.90;;;;;;4882902;29;20051;-78
2023/04/01 13:27:37;;;;;;;7.57;6.88;;;10.10;99.90;;;;;;4882008;29;20122;-75
2023/04/01 13:30:18;;;;;;;7.65;6.95;;;10.20;99.90;;;;;;4882115;29;20045;-75
2023/04/01 13:32:57;;;;;;;7.70;7.00;;;10.10;99.90;;;;;;4893048;29;20095;-75
2023/04/01 13:35:49;;;;;;;7.88;7.18;;;10.10;99.90;;;;;;4900830;29;20143;-77
2023/04/01 13:39:00;;;;;;;8.38;7.60;;;10.20;99.90;;;;;;4889861;29;20047;-77
2023/04/01 13:41:51;;;;;;;7.25;6.65;;;10.00;99.90;;;;;;4888467;29;20549;-78
2023/04/01 13:44:31;;;;;;;7.00;6.38;;;10.10;99.90;;;;;;4918606;29;20040;-77
2023/04/01 13:47:12;;;;;;;7.35;6.65;;;10.10;99.90;;;;;;4883707;29;20506;-76
2023/04/01 13:49:48;;;;;;;8.10;7.40;;;10.10;99.90;;;;;;4879710;29;20096;-76
2023/04/01 13:52:47;;;;;;;9.32;8.45;;;10.10;99.90;;;;;;4883327;29;20554;-76
2023/04/01 13:55:35;;;;;;;7.90;7.20;;;10.10;99.90;;;;;;4885193;29;20051;-77
2023/04/01 13:58:12;;;;;;;8.73;7.90;;;10.10;99.90;;;;;;4898861;29;20439;-76
2023/04/01 14:00:56;;;;;;;7.53;6.85;;;10.10;99.90;;;;;;4882718;29;20071;-76
2023/04/01 14:03:38;;;;;;;6.80;6.20;;;10.10;99.90;;;;;;4898308;29;20044;-77
2023/04/01 14:06:31;;;;;;;7.60;6.82;;;10.10;99.90;;;;;;4881410;29;20079;-77
2023/04/01 14:09:02;;;;;;;7.18;6.47;;;10.10;99.90;;;;;;4888103;29;20044;-77
2023/04/01 14:11:52;;;;;;;9.02;8.23;;;10.00;99.90;;;;;;4866236;29;20048;-77